sensor_id;sensor_type;location;lat;lon;timestamp;P1;durP1;ratioP1;P2;durP2;ratioP2
18072;SDS011;9161;47.348;9.648;2023-08-31T00:00:06;1.93;;;1.60;;
18072;SDS011;9161;47.348;9.648;2023-08-31T00:05:11;2.77;;;1.67;;
18072;SDS011;9161;47.348;9.648;2023-08-31T00:10:13;4.03;;;2.07;;
18072;SDS011;9161;47.348;9.648;2023-08-31T00:15:18;2.80;;;1.93;;
18072;SDS011;9161;47.348;9.648;2023-08-31T00:20:25;4.80;;;2.77;;
18072;SDS011;9161;47.348;9.648;2023-08-31T00:25:30;5.70;;;2.03;;
18072;SDS011;9161;47.348;9.648;2023-08-31T00:30:34;4.17;;;2.63;;
18072;SDS011;9161;47.348;9.648;2023-08-31T00:35:37;5.87;;;2.43;;
18072;SDS011;9161;47.348;9.648;2023-08-31T00:40:43;5.33;;;2.77;;
18072;SDS011;9161;47.348;9.648;2023-08-31T00:45:49;4.40;;;2.30;;
18072;SDS011;9161;47.348;9.648;2023-08-31T00:50:54;4.23;;;2.53;;
18072;SDS011;9161;47.348;9.648;2023-08-31T00:55:56;4.23;;;2.60;;
18072;SDS011;9161;47.348;9.648;2023-08-31T01:01:02;2.70;;;2.30;;
18072;SDS011;9161;47.348;9.648;2023-08-31T01:06:12;3.63;;;2.27;;
18072;SDS011;9161;47.348;9.648;2023-08-31T01:11:21;3.23;;;2.17;;
18072;SDS011;9161;47.348;9.648;2023-08-31T01:16:39;3.20;;;2.20;;
18072;SDS011;9161;47.348;9.648;2023-08-31T01:21:44;4.50;;;2.70;;
18072;SDS011;9161;47.348;9.648;2023-08-31T01:26:51;4.77;;;2.10;;
18072;SDS011;9161;47.348;9.648;2023-08-31T01:31:57;2.77;;;2.03;;
18072;SDS011;9161;47.348;9.648;2023-08-31T01:37:02;3.87;;;2.37;;
18072;SDS011;9161;47.348;9.648;2023-08-31T01:42:11;3.43;;;2.43;;
18072;SDS011;9161;47.348;9.648;2023-08-31T01:47:15;2.97;;;2.10;;
18072;SDS011;9161;47.348;9.648;2023-08-31T01:52:19;3.00;;;1.80;;
18072;SDS011;9161;47.348;9.648;2023-08-31T01:57:22;2.03;;;1.60;;
18072;SDS011;9161;47.348;9.648;2023-08-31T02:02:24;1.80;;;1.63;;
18072;SDS011;9161;47.348;9.648;2023-08-31T02:07:28;3.67;;;1.77;;
18072;SDS011;9161;47.348;9.648;2023-08-31T02:12:32;4.90;;;1.97;;
18072;SDS011;9161;47.348;9.648;2023-08-31T02:17:36;6.23;;;2.40;;
18072;SDS011;9161;47.348;9.648;2023-08-31T02:22:39;6.17;;;2.53;;
18072;SDS011;9161;47.348;9.648;2023-08-31T02:27:42;3.97;;;2.50;;
18072;SDS011;9161;47.348;9.648;2023-08-31T02:32:44;3.30;;;2.23;;
18072;SDS011;9161;47.348;9.648;2023-08-31T02:37:48;4.13;;;2.40;;
18072;SDS011;9161;47.348;9.648;2023-08-31T02:42:52;4.70;;;2.40;;
18072;SDS011;9161;47.348;9.648;2023-08-31T02:47:55;4.47;;;2.60;;
18072;SDS011;9161;47.348;9.648;2023-08-31T02:52:57;3.33;;;2.27;;
18072;SDS011;9161;47.348;9.648;2023-08-31T02:58:02;4.33;;;2.23;;
18072;SDS011;9161;47.348;9.648;2023-08-31T03:03:05;4.27;;;3.17;;
18072;SDS011;9161;47.348;9.648;2023-08-31T03:08:09;2.30;;;1.90;;
18072;SDS011;9161;47.348;9.648;2023-08-31T03:13:14;4.53;;;2.03;;
18072;SDS011;9161;47.348;9.648;2023-08-31T03:18:17;2.07;;;1.67;;
18072;SDS011;9161;47.348;9.648;2023-08-31T03:23:19;2.70;;;1.70;;
18072;SDS011;9161;47.348;9.648;2023-08-31T03:28:23;3.03;;;1.50;;
18072;SDS011;9161;47.348;9.648;2023-08-31T03:33:26;2.00;;;1.70;;
18072;SDS011;9161;47.348;9.648;2023-08-31T03:38:30;3.00;;;1.67;;
18072;SDS011;9161;47.348;9.648;2023-08-31T03:43:39;5.30;;;2.10;;
18072;SDS011;9161;47.348;9.648;2023-08-31T03:48:41;3.00;;;2.03;;
18072;SDS011;9161;47.348;9.648;2023-08-31T03:53:43;6.30;;;1.97;;
18072;SDS011;9161;47.348;9.648;2023-08-31T03:58:47;3.90;;;2.10;;
18072;SDS011;9161;47.348;9.648;2023-08-31T04:03:51;4.27;;;2.10;;
18072;SDS011;9161;47.348;9.648;2023-08-31T04:08:53;3.90;;;2.27;;
18072;SDS011;9161;47.348;9.648;2023-08-31T04:13:57;6.37;;;3.83;;
18072;SDS011;9161;47.348;9.648;2023-08-31T04:18:59;4.43;;;2.90;;
18072;SDS011;9161;47.348;9.648;2023-08-31T04:24:03;4.23;;;2.33;;
18072;SDS011;9161;47.348;9.648;2023-08-31T04:29:08;3.27;;;2.43;;
18072;SDS011;9161;47.348;9.648;2023-08-31T04:34:10;8.30;;;3.60;;
18072;SDS011;9161;47.348;9.648;2023-08-31T04:39:12;5.30;;;2.90;;
18072;SDS011;9161;47.348;9.648;2023-08-31T04:44:16;4.13;;;2.77;;
18072;SDS011;9161;47.348;9.648;2023-08-31T04:49:19;4.53;;;2.50;;
18072;SDS011;9161;47.348;9.648;2023-08-31T04:54:23;6.37;;;2.80;;
18072;SDS011;9161;47.348;9.648;2023-08-31T04:59:27;5.60;;;2.93;;
18072;SDS011;9161;47.348;9.648;2023-08-31T05:04:30;5.73;;;2.70;;
18072;SDS011;9161;47.348;9.648;2023-08-31T05:09:32;4.03;;;2.90;;
18072;SDS011;9161;47.348;9.648;2023-08-31T05:14:36;2.77;;;2.37;;
18072;SDS011;9161;47.348;9.648;2023-08-31T05:19:40;6.73;;;2.30;;
18072;SDS011;9161;47.348;9.648;2023-08-31T05:24:42;3.83;;;2.40;;
18072;SDS011;9161;47.348;9.648;2023-08-31T05:29:46;5.50;;;1.70;;
18072;SDS011;9161;47.348;9.648;2023-08-31T05:34:49;4.10;;;2.23;;
18072;SDS011;9161;47.348;9.648;2023-08-31T05:39:52;4.80;;;2.50;;
18072;SDS011;9161;47.348;9.648;2023-08-31T05:44:56;4.47;;;2.43;;
18072;SDS011;9161;47.348;9.648;2023-08-31T05:49:59;3.53;;;2.67;;
18072;SDS011;9161;47.348;9.648;2023-08-31T05:55:01;4.23;;;2.30;;
18072;SDS011;9161;47.348;9.648;2023-08-31T06:00:07;3.83;;;2.60;;
18072;SDS011;9161;47.348;9.648;2023-08-31T06:05:10;3.07;;;2.20;;
18072;SDS011;9161;47.348;9.648;2023-08-31T06:10:16;7.33;;;2.37;;
18072;SDS011;9161;47.348;9.648;2023-08-31T06:15:20;3.17;;;2.20;;
18072;SDS011;9161;47.348;9.648;2023-08-31T06:20:22;3.17;;;1.93;;
18072;SDS011;9161;47.348;9.648;2023-08-31T06:25:25;4.40;;;2.53;;
18072;SDS011;9161;47.348;9.648;2023-08-31T06:30:29;3.43;;;1.90;;
18072;SDS011;9161;47.348;9.648;2023-08-31T06:35:31;4.17;;;2.60;;
18072;SDS011;9161;47.348;9.648;2023-08-31T06:40:33;4.10;;;2.23;;
18072;SDS011;9161;47.348;9.648;2023-08-31T06:45:38;6.70;;;2.80;;
18072;SDS011;9161;47.348;9.648;2023-08-31T06:50:41;3.30;;;2.33;;
18072;SDS011;9161;47.348;9.648;2023-08-31T06:55:43;6.73;;;2.97;;
18072;SDS011;9161;47.348;9.648;2023-08-31T07:00:47;4.07;;;2.80;;
18072;SDS011;9161;47.348;9.648;2023-08-31T07:05:50;7.40;;;3.60;;
18072;SDS011;9161;47.348;9.648;2023-08-31T07:10:53;9.47;;;3.40;;
18072;SDS011;9161;47.348;9.648;2023-08-31T07:15:57;6.83;;;3.53;;
18072;SDS011;9161;47.348;9.648;2023-08-31T07:20:59;4.97;;;2.73;;
18072;SDS011;9161;47.348;9.648;2023-08-31T07:26:01;4.70;;;2.80;;
18072;SDS011;9161;47.348;9.648;2023-08-31T07:31:06;5.87;;;3.40;;
18072;SDS011;9161;47.348;9.648;2023-08-31T07:36:09;4.50;;;2.50;;
18072;SDS011;9161;47.348;9.648;2023-08-31T07:41:11;3.60;;;2.30;;
18072;SDS011;9161;47.348;9.648;2023-08-31T07:46:15;2.90;;;2.10;;
18072;SDS011;9161;47.348;9.648;2023-08-31T07:51:20;7.23;;;3.03;;
18072;SDS011;9161;47.348;9.648;2023-08-31T07:56:23;5.07;;;2.37;;
18072;SDS011;9161;47.348;9.648;2023-08-31T08:01:27;4.33;;;2.97;;
18072;SDS011;9161;47.348;9.648;2023-08-31T08:06:30;4.30;;;2.30;;
18072;SDS011;9161;47.348;9.648;2023-08-31T08:11:34;7.60;;;2.80;;
18072;SDS011;9161;47.348;9.648;2023-08-31T08:16:38;4.33;;;2.57;;
18072;SDS011;9161;47.348;9.648;2023-08-31T08:21:42;4.57;;;2.57;;
18072;SDS011;9161;47.348;9.648;2023-08-31T08:26:45;8.33;;;3.63;;
18072;SDS011;9161;47.348;9.648;2023-08-31T08:31:49;4.90;;;3.20;;
18072;SDS011;9161;47.348;9.648;2023-08-31T08:36:51;5.30;;;2.63;;
18072;SDS011;9161;47.348;9.648;2023-08-31T08:41:53;5.40;;;2.67;;
18072;SDS011;9161;47.348;9.648;2023-08-31T08:47:00;5.03;;;2.00;;
18072;SDS011;9161;47.348;9.648;2023-08-31T08:52:04;3.10;;;2.13;;
18072;SDS011;9161;47.348;9.648;2023-08-31T08:57:07;5.13;;;2.40;;
18072;SDS011;9161;47.348;9.648;2023-08-31T09:02:11;6.93;;;2.30;;
18072;SDS011;9161;47.348;9.648;2023-08-31T09:07:14;3.87;;;2.07;;
18072;SDS011;9161;47.348;9.648;2023-08-31T09:12:16;7.70;;;2.40;;
18072;SDS011;9161;47.348;9.648;2023-08-31T09:17:23;5.47;;;2.40;;
18072;SDS011;9161;47.348;9.648;2023-08-31T09:22:29;6.33;;;2.80;;
18072;SDS011;9161;47.348;9.648;2023-08-31T09:27:31;11.93;;;3.30;;
18072;SDS011;9161;47.348;9.648;2023-08-31T09:32:40;3.77;;;1.97;;
18072;SDS011;9161;47.348;9.648;2023-08-31T09:37:49;5.37;;;1.53;;
18072;SDS011;9161;47.348;9.648;2023-08-31T09:42:57;2.80;;;2.10;;
18072;SDS011;9161;47.348;9.648;2023-08-31T09:48:02;3.73;;;1.50;;
18072;SDS011;9161;47.348;9.648;2023-08-31T09:53:05;3.63;;;1.83;;
18072;SDS011;9161;47.348;9.648;2023-08-31T09:58:11;2.72;;;1.70;;
18072;SDS011;9161;47.348;9.648;2023-08-31T10:03:19;2.47;;;1.50;;
18072;SDS011;9161;47.348;9.648;2023-08-31T10:08:22;2.70;;;1.50;;
18072;SDS011;9161;47.348;9.648;2023-08-31T10:13:27;3.47;;;1.60;;
18072;SDS011;9161;47.348;9.648;2023-08-31T10:18:36;3.88;;;1.48;;
18072;SDS011;9161;47.348;9.648;2023-08-31T10:23:44;2.50;;;1.30;;
18072;SDS011;9161;47.348;9.648;2023-08-31T10:28:51;4.18;;;1.40;;
18072;SDS011;9161;47.348;9.648;2023-08-31T10:33:58;4.13;;;1.50;;
18072;SDS011;9161;47.348;9.648;2023-08-31T10:39:05;2.85;;;1.67;;
18072;SDS011;9161;47.348;9.648;2023-08-31T10:44:17;2.88;;;1.55;;
18072;SDS011;9161;47.348;9.648;2023-08-31T10:49:25;2.47;;;1.30;;
18072;SDS011;9161;47.348;9.648;2023-08-31T10:54:30;3.65;;;1.58;;
18072;SDS011;9161;47.348;9.648;2023-08-31T10:59:41;3.33;;;1.52;;
18072;SDS011;9161;47.348;9.648;2023-08-31T11:04:57;3.40;;;1.60;;
18072;SDS011;9161;47.348;9.648;2023-08-31T11:10:08;2.90;;;1.63;;
18072;SDS011;9161;47.348;9.648;2023-08-31T11:15:15;3.85;;;1.75;;
18072;SDS011;9161;47.348;9.648;2023-08-31T11:20:21;2.00;;;1.45;;
18072;SDS011;9161;47.348;9.648;2023-08-31T11:25:30;2.55;;;1.50;;
18072;SDS011;9161;47.348;9.648;2023-08-31T11:30:33;4.45;;;1.90;;
18072;SDS011;9161;47.348;9.648;2023-08-31T11:35:39;4.00;;;1.88;;
18072;SDS011;9161;47.348;9.648;2023-08-31T11:40:43;3.78;;;2.08;;
18072;SDS011;9161;47.348;9.648;2023-08-31T11:45:46;2.47;;;1.45;;
18072;SDS011;9161;47.348;9.648;2023-08-31T11:50:51;3.88;;;1.48;;
18072;SDS011;9161;47.348;9.648;2023-08-31T11:55:56;5.25;;;1.90;;
18072;SDS011;9161;47.348;9.648;2023-08-31T12:00:58;3.95;;;1.50;;
18072;SDS011;9161;47.348;9.648;2023-08-31T12:06:07;4.35;;;1.50;;
18072;SDS011;9161;47.348;9.648;2023-08-31T12:11:10;3.50;;;2.03;;
18072;SDS011;9161;47.348;9.648;2023-08-31T12:16:14;4.03;;;1.67;;
18072;SDS011;9161;47.348;9.648;2023-08-31T12:21:20;2.65;;;1.45;;
18072;SDS011;9161;47.348;9.648;2023-08-31T12:26:22;3.53;;;1.58;;
18072;SDS011;9161;47.348;9.648;2023-08-31T12:31:26;3.67;;;1.70;;
18072;SDS011;9161;47.348;9.648;2023-08-31T12:36:31;4.28;;;1.58;;
18072;SDS011;9161;47.348;9.648;2023-08-31T12:41:33;4.88;;;1.83;;
18072;SDS011;9161;47.348;9.648;2023-08-31T12:46:39;6.80;;;2.28;;
18072;SDS011;9161;47.348;9.648;2023-08-31T12:51:43;4.45;;;1.90;;
18072;SDS011;9161;47.348;9.648;2023-08-31T12:56:48;3.55;;;1.73;;
18072;SDS011;9161;47.348;9.648;2023-08-31T13:01:53;1.88;;;1.30;;
18072;SDS011;9161;47.348;9.648;2023-08-31T13:06:56;1.95;;;1.30;;
18072;SDS011;9161;47.348;9.648;2023-08-31T13:11:59;3.50;;;1.33;;
18072;SDS011;9161;47.348;9.648;2023-08-31T13:17:02;3.08;;;1.50;;
18072;SDS011;9161;47.348;9.648;2023-08-31T13:22:08;4.22;;;1.80;;
18072;SDS011;9161;47.348;9.648;2023-08-31T13:27:15;2.55;;;1.50;;
18072;SDS011;9161;47.348;9.648;2023-08-31T13:32:18;3.13;;;1.58;;
18072;SDS011;9161;47.348;9.648;2023-08-31T13:37:21;3.22;;;1.67;;
18072;SDS011;9161;47.348;9.648;2023-08-31T13:42:25;3.75;;;1.60;;
18072;SDS011;9161;47.348;9.648;2023-08-31T13:47:30;3.42;;;1.48;;
18072;SDS011;9161;47.348;9.648;2023-08-31T13:52:34;5.97;;;1.80;;
18072;SDS011;9161;47.348;9.648;2023-08-31T13:57:38;5.80;;;1.88;;
18072;SDS011;9161;47.348;9.648;2023-08-31T14:02:43;3.22;;;1.48;;
18072;SDS011;9161;47.348;9.648;2023-08-31T14:07:48;3.97;;;1.40;;
18072;SDS011;9161;47.348;9.648;2023-08-31T14:12:51;3.00;;;1.80;;
18072;SDS011;9161;47.348;9.648;2023-08-31T14:17:54;3.85;;;1.70;;
18072;SDS011;9161;47.348;9.648;2023-08-31T14:22:59;4.03;;;1.58;;
18072;SDS011;9161;47.348;9.648;2023-08-31T14:28:01;6.63;;;1.73;;
18072;SDS011;9161;47.348;9.648;2023-08-31T14:33:07;4.47;;;1.75;;
18072;SDS011;9161;47.348;9.648;2023-08-31T14:38:13;3.10;;;1.55;;
18072;SDS011;9161;47.348;9.648;2023-08-31T14:43:24;3.63;;;1.80;;
18072;SDS011;9161;47.348;9.648;2023-08-31T14:48:29;8.10;;;1.77;;
18072;SDS011;9161;47.348;9.648;2023-08-31T14:53:37;6.73;;;2.13;;
18072;SDS011;9161;47.348;9.648;2023-08-31T14:58:44;6.83;;;2.53;;
18072;SDS011;9161;47.348;9.648;2023-08-31T15:03:49;3.47;;;1.50;;
18072;SDS011;9161;47.348;9.648;2023-08-31T15:08:56;3.73;;;1.70;;
18072;SDS011;9161;47.348;9.648;2023-08-31T15:14:02;7.07;;;1.97;;
18072;SDS011;9161;47.348;9.648;2023-08-31T15:19:07;4.60;;;2.10;;
18072;SDS011;9161;47.348;9.648;2023-08-31T15:24:17;3.13;;;1.77;;
18072;SDS011;9161;47.348;9.648;2023-08-31T15:29:23;5.30;;;1.77;;
18072;SDS011;9161;47.348;9.648;2023-08-31T15:34:31;4.93;;;1.50;;
18072;SDS011;9161;47.348;9.648;2023-08-31T15:39:37;5.07;;;1.80;;
18072;SDS011;9161;47.348;9.648;2023-08-31T15:44:42;5.87;;;1.53;;
18072;SDS011;9161;47.348;9.648;2023-08-31T15:49:47;6.47;;;1.93;;
18072;SDS011;9161;47.348;9.648;2023-08-31T15:55:00;5.77;;;2.10;;
18072;SDS011;9161;47.348;9.648;2023-08-31T16:00:07;5.60;;;1.90;;
18072;SDS011;9161;47.348;9.648;2023-08-31T16:05:12;7.13;;;2.20;;
18072;SDS011;9161;47.348;9.648;2023-08-31T16:10:20;3.83;;;1.90;;
18072;SDS011;9161;47.348;9.648;2023-08-31T16:15:25;6.03;;;2.00;;
18072;SDS011;9161;47.348;9.648;2023-08-31T16:20:31;3.57;;;1.60;;
18072;SDS011;9161;47.348;9.648;2023-08-31T16:25:41;4.83;;;1.83;;
18072;SDS011;9161;47.348;9.648;2023-08-31T16:30:48;5.10;;;1.90;;
18072;SDS011;9161;47.348;9.648;2023-08-31T16:35:56;5.57;;;2.50;;
18072;SDS011;9161;47.348;9.648;2023-08-31T16:41:05;3.60;;;2.30;;
18072;SDS011;9161;47.348;9.648;2023-08-31T16:46:10;6.80;;;2.53;;
18072;SDS011;9161;47.348;9.648;2023-08-31T16:51:16;6.10;;;2.47;;
18072;SDS011;9161;47.348;9.648;2023-08-31T16:56:23;7.23;;;2.30;;
18072;SDS011;9161;47.348;9.648;2023-08-31T17:01:28;5.87;;;2.60;;
18072;SDS011;9161;47.348;9.648;2023-08-31T17:06:34;5.40;;;2.40;;
18072;SDS011;9161;47.348;9.648;2023-08-31T17:11:43;6.20;;;2.63;;
18072;SDS011;9161;47.348;9.648;2023-08-31T17:16:51;7.00;;;2.97;;
18072;SDS011;9161;47.348;9.648;2023-08-31T17:21:56;3.87;;;2.40;;
18072;SDS011;9161;47.348;9.648;2023-08-31T17:27:08;5.27;;;3.00;;
18072;SDS011;9161;47.348;9.648;2023-08-31T17:32:16;4.57;;;2.33;;
18072;SDS011;9161;47.348;9.648;2023-08-31T17:37:24;4.53;;;2.57;;
18072;SDS011;9161;47.348;9.648;2023-08-31T17:42:48;7.57;;;2.70;;
18072;SDS011;9161;47.348;9.648;2023-08-31T17:48:00;5.67;;;2.93;;
18072;SDS011;9161;47.348;9.648;2023-08-31T17:53:16;6.67;;;3.03;;
18072;SDS011;9161;47.348;9.648;2023-08-31T17:58:27;7.73;;;3.57;;
18072;SDS011;9161;47.348;9.648;2023-08-31T18:03:35;10.87;;;5.57;;
18072;SDS011;9161;47.348;9.648;2023-08-31T18:08:45;10.60;;;3.47;;
18072;SDS011;9161;47.348;9.648;2023-08-31T18:14:06;13.03;;;6.00;;
18072;SDS011;9161;47.348;9.648;2023-08-31T18:19:16;10.23;;;4.97;;
18072;SDS011;9161;47.348;9.648;2023-08-31T18:24:32;8.73;;;4.23;;
18072;SDS011;9161;47.348;9.648;2023-08-31T18:29:41;6.67;;;2.70;;
18072;SDS011;9161;47.348;9.648;2023-08-31T18:34:49;17.20;;;8.97;;
18072;SDS011;9161;47.348;9.648;2023-08-31T18:40:01;13.87;;;6.40;;
18072;SDS011;9161;47.348;9.648;2023-08-31T18:45:20;6.83;;;3.23;;
18072;SDS011;9161;47.348;9.648;2023-08-31T18:50:30;4.10;;;2.50;;
18072;SDS011;9161;47.348;9.648;2023-08-31T18:55:38;5.87;;;2.70;;
18072;SDS011;9161;47.348;9.648;2023-08-31T19:00:48;4.70;;;2.87;;
18072;SDS011;9161;47.348;9.648;2023-08-31T19:06:00;7.20;;;2.80;;
18072;SDS011;9161;47.348;9.648;2023-08-31T19:11:14;5.53;;;2.60;;
18072;SDS011;9161;47.348;9.648;2023-08-31T19:16:29;6.70;;;2.60;;
18072;SDS011;9161;47.348;9.648;2023-08-31T19:21:40;6.70;;;2.73;;
18072;SDS011;9161;47.348;9.648;2023-08-31T19:26:46;6.47;;;2.57;;
18072;SDS011;9161;47.348;9.648;2023-08-31T19:31:56;3.70;;;2.50;;
18072;SDS011;9161;47.348;9.648;2023-08-31T19:37:12;6.50;;;2.60;;
18072;SDS011;9161;47.348;9.648;2023-08-31T19:42:22;5.17;;;2.33;;
18072;SDS011;9161;47.348;9.648;2023-08-31T19:47:43;7.67;;;2.27;;
18072;SDS011;9161;47.348;9.648;2023-08-31T19:52:50;4.57;;;2.40;;
18072;SDS011;9161;47.348;9.648;2023-08-31T19:57:57;4.47;;;2.00;;
18072;SDS011;9161;47.348;9.648;2023-08-31T20:03:08;3.93;;;2.00;;
18072;SDS011;9161;47.348;9.648;2023-08-31T20:08:25;4.73;;;2.60;;
18072;SDS011;9161;47.348;9.648;2023-08-31T20:13:40;6.10;;;2.60;;
18072;SDS011;9161;47.348;9.648;2023-08-31T20:18:51;4.17;;;2.50;;
18072;SDS011;9161;47.348;9.648;2023-08-31T20:24:05;3.00;;;2.13;;
18072;SDS011;9161;47.348;9.648;2023-08-31T20:29:12;3.97;;;2.07;;
18072;SDS011;9161;47.348;9.648;2023-08-31T20:34:22;3.67;;;2.03;;
18072;SDS011;9161;47.348;9.648;2023-08-31T20:39:29;6.93;;;2.30;;
18072;SDS011;9161;47.348;9.648;2023-08-31T20:44:41;5.67;;;2.10;;
18072;SDS011;9161;47.348;9.648;2023-08-31T20:49:49;7.27;;;2.20;;
18072;SDS011;9161;47.348;9.648;2023-08-31T20:54:55;4.97;;;2.00;;
18072;SDS011;9161;47.348;9.648;2023-08-31T21:00:02;2.63;;;1.60;;
18072;SDS011;9161;47.348;9.648;2023-08-31T21:05:11;4.13;;;2.20;;
18072;SDS011;9161;47.348;9.648;2023-08-31T21:10:16;5.53;;;2.17;;
18072;SDS011;9161;47.348;9.648;2023-08-31T21:15:21;3.33;;;2.10;;
18072;SDS011;9161;47.348;9.648;2023-08-31T21:20:27;5.47;;;1.93;;
18072;SDS011;9161;47.348;9.648;2023-08-31T21:25:34;4.10;;;2.00;;
18072;SDS011;9161;47.348;9.648;2023-08-31T21:30:39;4.60;;;2.03;;
18072;SDS011;9161;47.348;9.648;2023-08-31T21:35:48;4.43;;;2.20;;
18072;SDS011;9161;47.348;9.648;2023-08-31T21:40:50;5.73;;;1.97;;
18072;SDS011;9161;47.348;9.648;2023-08-31T21:45:59;3.67;;;2.20;;
18072;SDS011;9161;47.348;9.648;2023-08-31T21:51:06;5.17;;;2.10;;
18072;SDS011;9161;47.348;9.648;2023-08-31T21:56:09;5.40;;;2.50;;
18072;SDS011;9161;47.348;9.648;2023-08-31T22:01:12;5.13;;;2.50;;
18072;SDS011;9161;47.348;9.648;2023-08-31T22:06:17;4.70;;;2.17;;
18072;SDS011;9161;47.348;9.648;2023-08-31T22:11:20;4.83;;;2.40;;
18072;SDS011;9161;47.348;9.648;2023-08-31T22:16:22;4.17;;;2.07;;
18072;SDS011;9161;47.348;9.648;2023-08-31T22:21:33;3.57;;;2.10;;
18072;SDS011;9161;47.348;9.648;2023-08-31T22:26:37;4.77;;;2.40;;
18072;SDS011;9161;47.348;9.648;2023-08-31T22:31:39;3.00;;;1.70;;
18072;SDS011;9161;47.348;9.648;2023-08-31T22:36:43;4.07;;;1.63;;
18072;SDS011;9161;47.348;9.648;2023-08-31T22:41:45;6.43;;;2.07;;
18072;SDS011;9161;47.348;9.648;2023-08-31T22:46:48;4.47;;;1.97;;
18072;SDS011;9161;47.348;9.648;2023-08-31T22:51:53;4.07;;;2.03;;
18072;SDS011;9161;47.348;9.648;2023-08-31T22:56:56;6.37;;;2.83;;
18072;SDS011;9161;47.348;9.648;2023-08-31T23:02:00;4.60;;;2.50;;
18072;SDS011;9161;47.348;9.648;2023-08-31T23:07:06;4.60;;;2.67;;
18072;SDS011;9161;47.348;9.648;2023-08-31T23:12:09;5.97;;;3.23;;
18072;SDS011;9161;47.348;9.648;2023-08-31T23:17:14;5.73;;;2.97;;
18072;SDS011;9161;47.348;9.648;2023-08-31T23:22:18;4.03;;;2.40;;
18072;SDS011;9161;47.348;9.648;2023-08-31T23:27:21;5.90;;;2.70;;
18072;SDS011;9161;47.348;9.648;2023-08-31T23:32:30;7.60;;;2.83;;
18072;SDS011;9161;47.348;9.648;2023-08-31T23:37:35;5.77;;;2.50;;
18072;SDS011;9161;47.348;9.648;2023-08-31T23:42:38;4.70;;;3.03;;
18072;SDS011;9161;47.348;9.648;2023-08-31T23:47:43;4.80;;;2.67;;
18072;SDS011;9161;47.348;9.648;2023-08-31T23:52:46;4.67;;;3.07;;
18072;SDS011;9161;47.348;9.648;2023-08-31T23:57:49;3.83;;;2.50;;
